CCA1309 ZBAA-ZGGG
Flight info
| Callsign | CCA1309 |
|---|---|
| Flight time | N/A |
| Altitude | 34100 |
| Route | RUSDO W45 IKAVO |
| Aircraft | B77W/H-SDE3/L |
Departure
| Time | 2026-05-01 13:33 |
|---|---|
| Airport | Beijing Capital International Airport (ZBAA) |
Arrival
| Time | N/A |
|---|---|
| Airport | Guangzhou Baiyun International Airport (ZGGG) |
| Time | Latitude | Longitude | Altitude | Speed | Heading |
|---|---|---|---|---|---|
| 2026-05-01 13:18 | 40.07005 | 116.60522 | 129 ft | 0 kts | 84° |
| 2026-05-01 13:21 | 40.07005 | 116.60513 | 129 ft | 2 kts | 84° |
| 2026-05-01 13:21 | 40.07003 | 116.60493 | 129 ft | 2 kts | 83° |
| 2026-05-01 13:22 | 40.07001 | 116.60480 | 129 ft | 2 kts | 83° |
| 2026-05-01 13:22 | 40.06998 | 116.60461 | 130 ft | 2 kts | 67° |
| 2026-05-01 13:22 | 40.06991 | 116.60445 | 129 ft | 2 kts | 52° |
| 2026-05-01 13:22 | 40.06981 | 116.60430 | 129 ft | 2 kts | 39° |
| 2026-05-01 13:23 | 40.06969 | 116.60420 | 129 ft | 2 kts | 26° |
| 2026-05-01 13:23 | 40.06955 | 116.60413 | 129 ft | 2 kts | 12° |
| 2026-05-01 13:23 | 40.06940 | 116.60410 | 129 ft | 2 kts | 359° |
| 2026-05-01 13:23 | 40.06931 | 116.60411 | 129 ft | 0 kts | 353° |
| 2026-05-01 13:25 | 40.06932 | 116.60411 | 129 ft | 0 kts | 353° |
| 2026-05-01 13:25 | 40.06950 | 116.60408 | 129 ft | 6 kts | 353° |
| 2026-05-01 13:25 | 40.07017 | 116.60397 | 129 ft | 11 kts | 354° |
| 2026-05-01 13:26 | 40.07095 | 116.60386 | 129 ft | 11 kts | 354° |
| 2026-05-01 13:26 | 40.07171 | 116.60375 | 129 ft | 10 kts | 353° |
| 2026-05-01 13:26 | 40.07231 | 116.60339 | 129 ft | 9 kts | 304° |
| 2026-05-01 13:26 | 40.07241 | 116.60248 | 129 ft | 11 kts | 263° |
| 2026-05-01 13:27 | 40.07236 | 116.60143 | 129 ft | 11 kts | 286° |
| 2026-05-01 13:27 | 40.07296 | 116.60089 | 129 ft | 11 kts | 351° |
| 2026-05-01 13:27 | 40.07507 | 116.60055 | 129 ft | 19 kts | 354° |
| 2026-05-01 13:28 | 40.07777 | 116.60014 | 129 ft | 19 kts | 354° |
| 2026-05-01 13:28 | 40.07916 | 116.59992 | 129 ft | 20 kts | 353° |
| 2026-05-01 13:29 | 40.08201 | 116.59949 | 129 ft | 20 kts | 354° |
| 2026-05-01 13:29 | 40.08492 | 116.59901 | 129 ft | 22 kts | 353° |
| 2026-05-01 13:30 | 40.08973 | 116.59808 | 130 ft | 7 kts | 306° |
| 2026-05-01 13:31 | 40.08976 | 116.59628 | 129 ft | 11 kts | 263° |
| 2026-05-01 13:31 | 40.08837 | 116.59496 | 130 ft | 6 kts | 174° |
| 2026-05-01 13:32 | 40.08598 | 116.59535 | 130 ft | 63 kts | 173° |
| 2026-05-01 13:33 | 40.05839 | 116.59968 | 1075 ft | 158 kts | 172° |
| 2026-05-01 13:33 | 40.03674 | 116.60308 | 2421 ft | 159 kts | 168° |
| 2026-05-01 13:34 | 40.01409 | 116.60609 | 3346 ft | 173 kts | 174° |
| 2026-05-01 13:34 | 39.98965 | 116.61073 | 4290 ft | 189 kts | 165° |
| 2026-05-01 13:35 | 39.96997 | 116.61237 | 4842 ft | 210 kts | 176° |
| 2026-05-01 13:35 | 39.95484 | 116.61440 | 5227 ft | 229 kts | 175° |
| 2026-05-01 13:35 | 39.92967 | 116.61903 | 6011 ft | 248 kts | 174° |
| 2026-05-01 13:36 | 39.91183 | 116.62235 | 6114 ft | 268 kts | 175° |
| 2026-05-01 13:36 | 39.91135 | 116.62243 | 6135 ft | 268 kts | 175° |
| 2026-05-01 13:36 | 39.89465 | 116.62521 | 7028 ft | 265 kts | 175° |
| 2026-05-01 13:37 | 39.87656 | 116.62807 | 7809 ft | 269 kts | 176° |
| 2026-05-01 13:37 | 39.85795 | 116.63096 | 8567 ft | 272 kts | 176° |
| 2026-05-01 13:37 | 39.83906 | 116.63390 | 9297 ft | 277 kts | 176° |
| 2026-05-01 13:37 | 39.81981 | 116.63686 | 10087 ft | 279 kts | 176° |
| 2026-05-01 13:38 | 39.77928 | 116.64253 | 10988 ft | 310 kts | 180° |
| 2026-05-01 13:38 | 39.75717 | 116.64132 | 11411 ft | 326 kts | 189° |
| 2026-05-01 13:38 | 39.73459 | 116.63487 | 11864 ft | 342 kts | 199° |
| 2026-05-01 13:39 | 39.71205 | 116.62252 | 12351 ft | 359 kts | 209° |
| 2026-05-01 13:39 | 39.69122 | 116.60422 | 13032 ft | 370 kts | 220° |
| 2026-05-01 13:39 | 39.67307 | 116.58027 | 13822 ft | 379 kts | 232° |
| 2026-05-01 13:39 | 39.65902 | 116.55174 | 14913 ft | 381 kts | 244° |
| 2026-05-01 13:40 | 39.64972 | 116.52003 | 16130 ft | 381 kts | 255° |
| 2026-05-01 13:40 | 39.64536 | 116.48636 | 17255 ft | 383 kts | 265° |
| 2026-05-01 13:40 | 39.64362 | 116.45207 | 18259 ft | 387 kts | 266° |
| 2026-05-01 13:40 | 39.64185 | 116.41707 | 19219 ft | 391 kts | 266° |
| 2026-05-01 13:41 | 39.63990 | 116.38200 | 20106 ft | 396 kts | 266° |
| 2026-05-01 13:41 | 39.63781 | 116.34651 | 21036 ft | 399 kts | 265° |
| 2026-05-01 13:41 | 39.63562 | 116.31085 | 22005 ft | 400 kts | 266° |
| 2026-05-01 13:41 | 39.63338 | 116.27518 | 22886 ft | 402 kts | 266° |
| 2026-05-01 13:42 | 39.63106 | 116.23900 | 23699 ft | 406 kts | 266° |
| 2026-05-01 13:42 | 39.62867 | 116.20222 | 24558 ft | 409 kts | 265° |
| 2026-05-01 13:42 | 39.62627 | 116.16591 | 25471 ft | 409 kts | 265° |
| 2026-05-01 13:42 | 39.62385 | 116.12945 | 26360 ft | 410 kts | 266° |
| 2026-05-01 13:43 | 39.62139 | 116.09270 | 27219 ft | 411 kts | 265° |
| 2026-05-01 13:43 | 39.61892 | 116.05613 | 28033 ft | 412 kts | 265° |
| 2026-05-01 13:43 | 39.61640 | 116.01894 | 28866 ft | 413 kts | 265° |
| 2026-05-01 13:43 | 39.61389 | 115.98210 | 29717 ft | 413 kts | 265° |
| 2026-05-01 13:44 | 39.61139 | 115.94564 | 30677 ft | 410 kts | 265° |
| 2026-05-01 13:44 | 39.60889 | 115.90930 | 31714 ft | 404 kts | 265° |
| 2026-05-01 13:44 | 39.60817 | 115.87312 | 32734 ft | 397 kts | 272° |
| 2026-05-01 13:44 | 39.61102 | 115.83778 | 33588 ft | 395 kts | 278° |
| 2026-05-01 13:45 | 39.61711 | 115.80343 | 33977 ft | 398 kts | 283° |
| 2026-05-01 13:45 | 39.63946 | 115.73740 | 33984 ft | 398 kts | 294° |
| 2026-05-01 13:46 | 39.66629 | 115.67465 | 34001 ft | 402 kts | 294° |
| 2026-05-01 13:46 | 39.69306 | 115.61101 | 34014 ft | 400 kts | 293° |
| 2026-05-01 13:47 | 39.71858 | 115.54735 | 34014 ft | 397 kts | 289° |
| 2026-05-01 13:47 | 39.73300 | 115.47865 | 34006 ft | 394 kts | 275° |
| 2026-05-01 13:48 | 39.73300 | 115.40848 | 34017 ft | 391 kts | 263° |
| 2026-05-01 13:48 | 39.71891 | 115.34071 | 34024 ft | 392 kts | 250° |
| 2026-05-01 13:49 | 39.69433 | 115.27734 | 34037 ft | 398 kts | 246° |
| 2026-05-01 13:49 | 39.66874 | 115.21365 | 34040 ft | 397 kts | 246° |
| 2026-05-01 13:50 | 39.64336 | 115.15026 | 34041 ft | 398 kts | 246° |
| 2026-05-01 13:50 | 39.61790 | 115.08662 | 34043 ft | 397 kts | 246° |
| 2026-05-01 13:51 | 39.59246 | 115.02307 | 34046 ft | 398 kts | 246° |
| 2026-05-01 13:51 | 39.56709 | 114.95979 | 34050 ft | 397 kts | 246° |
| 2026-05-01 13:52 | 39.54157 | 114.89625 | 34055 ft | 398 kts | 246° |
| 2026-05-01 13:52 | 39.51613 | 114.83303 | 34057 ft | 399 kts | 246° |
| 2026-05-01 13:53 | 39.49208 | 114.77338 | 34066 ft | 399 kts | 246° |